Time;durP1;ratioP1;P1;durP2;ratioP2;P2;SDS_P1;SDS_P2;PMS_P1;PMS_P2;Temp;Humidity;BMP_temperature;BMP_pressure;BME280_temperature;BME280_humidity;BME280_pressure;Samples;Min_cycle;Max_cycle;Signal;HPM_P1;HPM_P2
2022/07/19 00:00:09;;;;;;;0.82;0.45;;;25.70;41.50;;;;;;5063666;28;20365;-60
2022/07/19 00:02:37;;;;;;;0.40;0.35;;;25.70;41.50;;;;;;5067608;28;20547;-60
2022/07/19 00:05:06;;;;;;;0.40;0.40;;;25.70;41.50;;;;;;5068492;28;20048;-59
2022/07/19 00:07:34;;;;;;;1.30;0.40;;;25.70;41.60;;;;;;5068005;28;20532;-60
2022/07/19 00:10:03;;;;;;;0.65;0.55;;;25.70;41.60;;;;;;5066136;28;20448;-60
2022/07/19 00:12:30;;;;;;;0.95;0.30;;;25.70;41.60;;;;;;5067984;28;20072;-60
2022/07/19 00:14:58;;;;;;;0.65;0.40;;;25.70;41.60;;;;;;5066764;28;20056;-60
2022/07/19 00:17:25;;;;;;;1.02;0.73;;;25.70;41.60;;;;;;5067690;28;20049;-60
2022/07/19 00:19:52;;;;;;;0.52;0.35;;;25.70;41.60;;;;;;5066506;28;20049;-60
2022/07/19 00:22:19;;;;;;;0.55;0.35;;;25.70;41.60;;;;;;5066827;28;20087;-60
2022/07/19 00:24:47;;;;;;;0.38;0.38;;;25.70;41.60;;;;;;5067999;28;20417;-60
2022/07/19 00:27:14;;;;;;;0.43;0.28;;;25.70;41.60;;;;;;5067593;28;20052;-60
2022/07/19 00:29:41;;;;;;;0.50;0.40;;;25.70;41.60;;;;;;5067741;28;20473;-60
2022/07/19 00:32:08;;;;;;;0.45;0.45;;;25.70;41.60;;;;;;5063169;28;20084;-60
2022/07/19 00:34:35;;;;;;;0.77;0.50;;;25.70;41.70;;;;;;5071162;28;20036;-60
2022/07/19 00:37:03;;;;;;;1.92;0.65;;;25.70;41.60;;;;;;5087652;28;20052;-60
2022/07/19 00:39:30;;;;;;;0.82;0.30;;;25.70;41.70;;;;;;5087916;28;20055;-60
2022/07/19 00:41:57;;;;;;;0.50;0.50;;;25.70;41.70;;;;;;5087270;28;20079;-60
2022/07/19 00:44:25;;;;;;;1.08;0.73;;;25.70;41.70;;;;;;5087964;28;20048;-59
2022/07/19 00:46:52;;;;;;;0.50;0.50;;;25.70;41.70;;;;;;5087405;28;20052;-60
2022/07/19 00:49:19;;;;;;;0.50;0.40;;;25.70;41.70;;;;;;5087225;28;20539;-59
2022/07/19 00:51:47;;;;;;;0.70;0.70;;;25.70;41.70;;;;;;5086451;28;20075;-59
2022/07/19 00:54:15;;;;;;;0.63;0.30;;;25.70;41.80;;;;;;5087494;28;20048;-59
2022/07/19 00:56:47;;;;;;;0.60;0.60;;;25.70;41.80;;;;;;5087511;28;20040;-59
2022/07/19 00:59:15;;;;;;;0.45;0.40;;;25.70;41.80;;;;;;5087305;28;20458;-60
2022/07/19 01:01:43;;;;;;;0.45;0.45;;;25.70;41.80;;;;;;5087929;28;20101;-59
2022/07/19 01:04:11;;;;;;;0.68;0.45;;;25.70;41.80;;;;;;5083874;28;20090;-60
2022/07/19 01:06:41;;;;;;;0.63;0.50;;;25.60;41.80;;;;;;5087732;28;20048;-60
2022/07/19 01:09:08;;;;;;;0.63;0.43;;;25.70;41.90;;;;;;5087496;28;20056;-59
2022/07/19 01:11:35;;;;;;;0.47;0.45;;;25.60;41.80;;;;;;5087505;28;20070;-60
2022/07/19 01:14:03;;;;;;;0.38;0.38;;;25.60;42.40;;;;;;5086493;28;20048;-60
2022/07/19 01:16:30;;;;;;;1.65;0.40;;;25.60;41.90;;;;;;5087235;28;20051;-59
2022/07/19 01:18:57;;;;;;;1.98;0.38;;;25.60;41.90;;;;;;5087621;28;20467;-60
2022/07/19 01:21:26;;;;;;;0.40;0.40;;;25.60;41.90;;;;;;5087144;28;20055;-59
2022/07/19 01:23:53;;;;;;;0.40;0.40;;;25.60;41.90;;;;;;5086064;28;20550;-60
2022/07/19 01:26:20;;;;;;;0.45;0.45;;;25.60;41.90;;;;;;5086926;28;20052;-60
2022/07/19 01:28:48;;;;;;;0.52;0.30;;;25.60;41.90;;;;;;5087690;28;20052;-60
2022/07/19 01:31:15;;;;;;;0.28;0.28;;;25.60;42.00;;;;;;5087291;28;20089;-60
2022/07/19 01:33:45;;;;;;;0.20;0.20;;;25.60;42.00;;;;;;5087500;28;20070;-60
2022/07/19 01:36:12;;;;;;;1.13;0.70;;;25.60;42.00;;;;;;5082918;28;20121;-60
2022/07/19 01:38:40;;;;;;;0.30;0.30;;;25.60;42.00;;;;;;5087685;28;20058;-60
2022/07/19 01:41:07;;;;;;;0.88;0.45;;;25.60;42.00;;;;;;5087092;28;20048;-59
2022/07/19 01:43:35;;;;;;;0.50;0.50;;;25.60;42.00;;;;;;5087011;28;20087;-60
2022/07/19 01:46:03;;;;;;;0.70;0.30;;;25.60;42.00;;;;;;5087417;28;20040;-60
2022/07/19 01:48:30;;;;;;;0.50;0.50;;;25.50;42.00;;;;;;5086987;28;20056;-60
2022/07/19 01:50:58;;;;;;;0.88;0.30;;;25.50;42.00;;;;;;5087034;28;20086;-60
2022/07/19 01:53:25;;;;;;;0.40;0.38;;;25.50;42.00;;;;;;5072383;28;20048;-59
2022/07/19 01:55:52;;;;;;;0.22;0.22;;;25.50;42.10;;;;;;5089286;28;20101;-60
2022/07/19 01:58:20;;;;;;;0.30;0.30;;;25.50;42.00;;;;;;5090969;28;20048;-61
2022/07/19 02:00:47;;;;;;;1.10;0.63;;;25.50;42.00;;;;;;5090290;28;20052;-60
2022/07/19 02:03:16;;;;;;;0.88;0.40;;;25.50;42.00;;;;;;5089476;28;20131;-60
2022/07/19 02:05:43;;;;;;;0.60;0.45;;;25.50;42.00;;;;;;5086064;28;20097;-60
2022/07/19 02:08:13;;;;;;;1.05;0.35;;;25.50;42.00;;;;;;5090309;28;20492;-60
2022/07/19 02:10:40;;;;;;;0.85;0.38;;;25.60;42.10;;;;;;5090671;28;20052;-60
2022/07/19 02:13:07;;;;;;;0.65;0.30;;;25.60;42.10;;;;;;5090160;28;20659;-61
2022/07/19 02:15:35;;;;;;;0.30;0.30;;;25.60;42.10;;;;;;5090178;28;20048;-60
2022/07/19 02:18:02;;;;;;;0.63;0.63;;;25.60;42.10;;;;;;5089925;28;20098;-60
2022/07/19 02:20:29;;;;;;;0.90;0.50;;;25.60;42.10;;;;;;5090408;28;20446;-60
2022/07/19 02:22:57;;;;;;;0.50;0.30;;;25.50;42.10;;;;;;5090144;28;20073;-60
2022/07/19 02:25:24;;;;;;;0.50;0.40;;;25.50;42.60;;;;;;5090237;28;20082;-60
2022/07/19 02:27:52;;;;;;;0.60;0.40;;;25.60;42.10;;;;;;5090429;28;20105;-60
2022/07/19 02:30:19;;;;;;;0.65;0.30;;;25.50;42.10;;;;;;5090495;28;20040;-60
2022/07/19 02:32:46;;;;;;;0.20;0.20;;;25.50;42.10;;;;;;5090047;28;20083;-60
2022/07/19 02:35:14;;;;;;;0.47;0.40;;;25.50;42.10;;;;;;5090449;28;20446;-60
2022/07/19 02:37:41;;;;;;;0.57;0.40;;;25.50;42.10;;;;;;5067200;28;20564;-59
2022/07/19 02:40:09;;;;;;;3.75;0.60;;;25.50;42.10;;;;;;5090360;28;20051;-60
2022/07/19 02:42:37;;;;;;;0.32;0.28;;;25.50;42.10;;;;;;5089520;28;20102;-60
2022/07/19 02:45:05;;;;;;;0.40;0.30;;;25.50;42.20;;;;;;5089835;28;20485;-60
2022/07/19 02:47:32;;;;;;;0.45;0.35;;;25.50;42.20;;;;;;5090018;28;20446;-60
2022/07/19 02:49:59;;;;;;;0.40;0.40;;;25.50;42.20;;;;;;5089443;28;20055;-60
2022/07/19 02:52:29;;;;;;;1.90;0.40;;;25.50;42.20;;;;;;5089570;28;20085;-60
2022/07/19 02:54:57;;;;;;;0.60;0.38;;;25.50;42.20;;;;;;5089707;28;20405;-60
2022/07/19 02:57:24;;;;;;;0.20;0.20;;;25.50;42.30;;;;;;5089428;28;20048;-60
2022/07/19 02:59:51;;;;;;;0.60;0.30;;;25.50;42.20;;;;;;5089743;28;20113;-59
2022/07/19 03:02:18;;;;;;;0.30;0.30;;;25.40;42.20;;;;;;5089040;28;20048;-60
2022/07/19 03:04:46;;;;;;;2.22;0.45;;;25.50;42.30;;;;;;5088568;28;20048;-60
2022/07/19 03:07:13;;;;;;;0.38;0.38;;;25.50;42.30;;;;;;5089410;28;20079;-60
2022/07/19 03:09:40;;;;;;;1.92;0.45;;;25.50;42.30;;;;;;5085148;28;20052;-60
2022/07/19 03:12:08;;;;;;;0.70;0.43;;;25.50;42.30;;;;;;5089393;28;20101;-60
2022/07/19 03:14:35;;;;;;;0.55;0.45;;;25.50;42.30;;;;;;5089055;28;20047;-59
2022/07/19 03:17:02;;;;;;;0.40;0.40;;;25.50;42.40;;;;;;5089197;28;20044;-59
2022/07/19 03:19:29;;;;;;;0.68;0.65;;;25.40;42.30;;;;;;5088284;28;20134;-60
2022/07/19 03:21:58;;;;;;;1.10;0.28;;;25.40;42.30;;;;;;5089160;28;20060;-60
2022/07/19 03:24:25;;;;;;;0.17;0.17;;;25.40;42.30;;;;;;5088924;28;20485;-60
2022/07/19 03:26:52;;;;;;;0.52;0.52;;;25.40;42.30;;;;;;5088833;28;20044;-60
2022/07/19 03:29:19;;;;;;;0.43;0.43;;;25.40;42.30;;;;;;5089159;28;20055;-60
2022/07/19 03:31:55;;;;;;;0.30;0.30;;;25.40;42.30;;;;;;5088849;28;20496;-59
2022/07/19 03:34:22;;;;;;;2.05;0.40;;;25.40;42.30;;;;;;5088992;28;20044;-59
2022/07/19 03:36:49;;;;;;;0.68;0.50;;;25.50;42.40;;;;;;5089155;28;20048;-59
2022/07/19 03:39:16;;;;;;;0.43;0.32;;;25.50;42.30;;;;;;5088469;28;20048;-60
2022/07/19 03:41:43;;;;;;;0.30;0.30;;;25.50;42.30;;;;;;5083328;28;20048;-60
2022/07/19 03:44:11;;;;;;;1.98;0.38;;;25.50;42.30;;;;;;5088283;28;20094;-59
2022/07/19 03:46:38;;;;;;;0.47;0.38;;;25.50;42.30;;;;;;5087360;28;20501;-60
2022/07/19 03:49:05;;;;;;;0.60;0.40;;;25.50;42.20;;;;;;5087466;28;20047;-60
2022/07/19 03:51:32;;;;;;;0.43;0.38;;;25.50;42.20;;;;;;5088382;28;20048;-60
2022/07/19 03:54:00;;;;;;;0.57;0.20;;;25.50;42.20;;;;;;5088773;28;20409;-60
2022/07/19 03:56:27;;;;;;;1.05;0.35;;;25.50;42.20;;;;;;5087923;28;20044;-60
2022/07/19 03:58:54;;;;;;;0.30;0.30;;;25.60;42.20;;;;;;5086767;28;20561;-60
2022/07/19 04:01:21;;;;;;;2.22;0.40;;;25.60;42.20;;;;;;5088328;28;20044;-61
2022/07/19 04:03:49;;;;;;;0.30;0.30;;;25.60;42.10;;;;;;5087720;28;20074;-60
2022/07/19 04:06:17;;;;;;;0.30;0.30;;;25.60;42.20;;;;;;5088884;28;20051;-60
2022/07/19 04:08:44;;;;;;;0.45;0.40;;;25.60;42.10;;;;;;5086675;28;20741;-60
2022/07/19 04:11:11;;;;;;;1.30;0.20;;;25.60;42.10;;;;;;5086496;28;20044;-60
2022/07/19 04:13:39;;;;;;;0.30;0.30;;;25.60;42.10;;;;;;5067135;28;20101;-60
2022/07/19 04:16:06;;;;;;;0.80;0.30;;;25.60;42.00;;;;;;5087787;28;20407;-60
2022/07/19 04:18:33;;;;;;;0.32;0.32;;;25.70;42.10;;;;;;5086969;28;20132;-60
2022/07/19 04:21:01;;;;;;;0.20;0.20;;;25.70;42.00;;;;;;5087868;28;20044;-60
2022/07/19 04:23:28;;;;;;;0.40;0.40;;;25.70;42.00;;;;;;5088133;28;20052;-60
2022/07/19 04:25:55;;;;;;;0.20;0.20;;;25.70;42.00;;;;;;5088047;28;20476;-60
2022/07/19 04:28:22;;;;;;;0.35;0.35;;;25.70;42.00;;;;;;5087535;28;20048;-60
2022/07/19 04:30:49;;;;;;;1.00;0.50;;;25.70;42.00;;;;;;5088288;28;20044;-60
2022/07/19 04:33:18;;;;;;;0.52;0.32;;;25.70;42.00;;;;;;5087543;28;20052;-60
2022/07/19 04:35:45;;;;;;;0.40;0.40;;;25.70;41.90;;;;;;5088154;28;20517;-60
2022/07/19 04:38:13;;;;;;;0.30;0.30;;;25.70;41.90;;;;;;5087788;28;20075;-60
2022/07/19 04:40:40;;;;;;;0.30;0.30;;;25.80;41.90;;;;;;5087558;28;20097;-60
2022/07/19 04:43:07;;;;;;;0.38;0.30;;;25.70;41.90;;;;;;5074448;28;20105;-59
2022/07/19 04:45:35;;;;;;;1.23;0.50;;;25.80;41.90;;;;;;5086502;28;20044;-60
2022/07/19 04:48:02;;;;;;;0.45;0.30;;;25.70;41.80;;;;;;5086470;28;20081;-60
2022/07/19 04:50:29;;;;;;;0.57;0.38;;;25.80;41.80;;;;;;5067644;28;20162;-60
2022/07/19 04:52:57;;;;;;;0.43;0.40;;;25.80;42.30;;;;;;5066770;28;20121;-60
2022/07/19 04:55:24;;;;;;;0.70;0.40;;;25.80;41.70;;;;;;5068646;28;20052;-60
2022/07/19 04:57:51;;;;;;;0.30;0.30;;;25.80;41.70;;;;;;5087232;28;20604;-60
2022/07/19 05:00:19;;;;;;;0.30;0.30;;;25.80;41.70;;;;;;5087365;28;20048;-59
2022/07/19 05:02:46;;;;;;;0.38;0.38;;;25.80;41.70;;;;;;5087113;28;20036;-60
2022/07/19 05:05:14;;;;;;;0.30;0.30;;;25.90;41.70;;;;;;5085745;28;20048;-60
2022/07/19 05:07:43;;;;;;;0.30;0.20;;;25.90;41.80;;;;;;5082021;28;20055;-60
2022/07/19 05:10:12;;;;;;;1.20;0.50;;;25.90;41.80;;;;;;5082771;28;20468;-61
2022/07/19 05:12:40;;;;;;;1.00;0.50;;;25.80;41.90;;;;;;5077844;28;20093;-61
2022/07/19 05:15:08;;;;;;;0.52;0.52;;;25.80;42.00;;;;;;5079259;28;20040;-61
2022/07/19 05:17:42;;;;;;;0.75;0.57;;;25.70;42.20;;;;;;5084115;28;20085;-70
2022/07/19 05:20:10;;;;;;;3.67;1.30;;;25.40;42.40;;;;;;5085684;28;20048;-72
2022/07/19 05:22:37;;;;;;;3.70;1.20;;;25.20;43.00;;;;;;5086623;28;20489;-71
2022/07/19 05:25:11;;;;;;;1.65;0.90;;;25.00;43.60;;;;;;5083024;28;20048;-70
2022/07/19 05:27:38;;;;;;;3.70;1.33;;;24.60;44.60;;;;;;5060711;28;20044;-71
2022/07/19 05:30:06;;;;;;;3.33;1.30;;;24.20;45.30;;;;;;5085383;28;20078;-69
2022/07/19 05:32:33;;;;;;;2.65;0.98;;;23.80;45.50;;;;;;5080650;28;20055;-71
2022/07/19 05:35:01;;;;;;;0.95;0.95;;;23.50;45.80;;;;;;5089193;28;20093;-69
2022/07/19 05:37:28;;;;;;;2.25;1.08;;;23.10;46.10;;;;;;5089328;28;20101;-68
2022/07/19 05:39:55;;;;;;;2.25;1.60;;;22.80;46.10;;;;;;5085209;28;20072;-69
2022/07/19 05:42:23;;;;;;;1.83;1.70;;;22.50;46.80;;;;;;5079120;28;20474;-69
2022/07/19 05:44:50;;;;;;;2.13;1.92;;;22.20;47.40;;;;;;5086571;28;20082;-69
2022/07/19 05:47:18;;;;;;;2.72;1.52;;;22.10;47.50;;;;;;5076675;28;20089;-69
2022/07/19 05:49:45;;;;;;;1.40;1.30;;;21.90;48.60;;;;;;5078881;28;20060;-68
2022/07/19 05:52:13;;;;;;;2.67;1.70;;;21.80;49.00;;;;;;5070085;28;20059;-68
2022/07/19 05:54:41;;;;;;;2.58;1.85;;;21.60;49.00;;;;;;5085440;28;20044;-68
2022/07/19 05:57:08;;;;;;;4.95;1.58;;;21.50;49.40;;;;;;5067171;28;20047;-68
2022/07/19 05:59:35;;;;;;;6.20;1.73;;;21.30;49.20;;;;;;5081245;28;20075;-68
2022/07/19 06:02:03;;;;;;;2.42;1.70;;;21.20;49.70;;;;;;5083718;28;20105;-69
2022/07/19 06:04:30;;;;;;;8.20;1.95;;;21.10;49.40;;;;;;5078251;28;20488;-68
2022/07/19 06:06:58;;;;;;;5.78;2.80;;;20.90;49.80;;;;;;5079350;28;20066;-69
2022/07/19 06:09:25;;;;;;;6.22;2.42;;;20.70;50.20;;;;;;5079284;28;20052;-69
2022/07/19 06:11:53;;;;;;;5.45;2.30;;;20.50;50.20;;;;;;5076356;28;20544;-74
2022/07/19 06:14:20;;;;;;;6.22;2.65;;;20.40;51.40;;;;;;5082689;28;20563;-63
2022/07/19 06:16:47;;;;;;;5.50;2.13;;;20.20;51.50;;;;;;5075344;28;20081;-62
2022/07/19 06:19:15;;;;;;;5.65;2.40;;;20.20;52.00;;;;;;5075210;28;20067;-63
2022/07/19 06:21:42;;;;;;;6.07;2.45;;;20.10;52.20;;;;;;5072801;28;20048;-61
2022/07/19 06:24:10;;;;;;;4.22;2.30;;;20.00;52.60;;;;;;5079960;28;20075;-60
2022/07/19 06:26:37;;;;;;;9.43;2.55;;;20.00;53.20;;;;;;5081252;28;20040;-61
2022/07/19 06:29:05;;;;;;;5.32;2.05;;;20.10;53.80;;;;;;5075138;28;20109;-59
2022/07/19 06:31:33;;;;;;;5.07;2.97;;;20.10;54.00;;;;;;5075237;28;20051;-59
2022/07/19 06:34:00;;;;;;;2.85;1.98;;;20.10;53.90;;;;;;5079525;28;20054;-60
2022/07/19 06:36:27;;;;;;;4.30;2.28;;;20.10;53.90;;;;;;5082059;28;20373;-60
2022/07/19 06:38:55;;;;;;;3.63;2.58;;;20.10;53.80;;;;;;5077874;28;20054;-59
2022/07/19 06:41:22;;;;;;;4.10;2.25;;;20.10;54.00;;;;;;5075931;28;20074;-59
2022/07/19 06:43:56;;;;;;;6.38;2.60;;;20.20;53.70;;;;;;5081533;28;20052;-59
2022/07/19 06:46:23;;;;;;;6.35;2.33;;;20.20;53.60;;;;;;5077571;28;20468;-60
2022/07/19 06:48:51;;;;;;;5.43;2.22;;;20.30;53.70;;;;;;5075785;28;20087;-59
2022/07/19 06:51:18;;;;;;;6.72;2.33;;;20.30;53.70;;;;;;5067972;28;20357;-59
2022/07/19 06:53:46;;;;;;;6.72;2.33;;;20.30;53.70;;;;;;5074471;28;20062;-60
2022/07/19 06:56:13;;;;;;;4.97;2.10;;;20.30;53.70;;;;;;5078466;28;20080;-59
2022/07/19 06:58:41;;;;;;;3.45;2.38;;;20.30;53.50;;;;;;5074254;28;20044;-59
2022/07/19 07:01:09;;;;;;;5.40;1.98;;;20.40;53.60;;;;;;5062016;28;20078;-59
2022/07/19 07:03:37;;;;;;;4.95;2.13;;;20.30;53.50;;;;;;5072644;28;20390;-59
2022/07/19 07:06:06;;;;;;;5.60;2.10;;;20.40;53.50;;;;;;5073858;28;20098;-60
2022/07/19 07:08:33;;;;;;;2.00;1.80;;;20.40;53.20;;;;;;5074091;28;20080;-61
2022/07/19 07:11:01;;;;;;;7.05;1.98;;;20.50;53.20;;;;;;5076017;28;20041;-58
2022/07/19 07:13:28;;;;;;;5.57;2.53;;;20.50;53.00;;;;;;5073312;28;20159;-59
2022/07/19 07:15:56;;;;;;;5.40;2.10;;;20.60;52.80;;;;;;5081253;28;20052;-59
2022/07/19 07:18:23;;;;;;;7.82;2.40;;;20.60;52.50;;;;;;5078358;28;20052;-59
2022/07/19 07:20:51;;;;;;;4.38;2.10;;;20.60;52.50;;;;;;5072032;28;20044;-60
2022/07/19 07:23:19;;;;;;;3.33;1.88;;;20.60;52.50;;;;;;5069075;28;20143;-59
2022/07/19 07:25:48;;;;;;;2.85;1.98;;;20.70;52.60;;;;;;5074524;28;20108;-59
2022/07/19 07:28:15;;;;;;;9.20;1.95;;;20.70;52.60;;;;;;5074278;28;20044;-60
2022/07/19 07:30:50;;;;;;;2.88;1.50;;;20.70;52.60;;;;;;5078445;28;20078;-59
2022/07/19 07:33:17;;;;;;;6.47;1.58;;;20.70;52.60;;;;;;5077277;28;20052;-59
2022/07/19 07:35:44;;;;;;;4.78;1.60;;;20.70;52.60;;;;;;5078734;28;20374;-60
2022/07/19 07:38:11;;;;;;;5.57;2.03;;;20.70;52.40;;;;;;5074374;28;20055;-59
2022/07/19 07:40:43;;;;;;;2.92;1.60;;;20.70;52.50;;;;;;5073391;28;20493;-59
2022/07/19 07:43:10;;;;;;;2.65;1.65;;;20.70;52.30;;;;;;5075120;28;20047;-59
2022/07/19 07:45:38;;;;;;;4.97;2.05;;;20.70;52.30;;;;;;5077894;28;20044;-59
2022/07/19 07:48:05;;;;;;;4.13;1.70;;;20.70;52.30;;;;;;5078555;28;20044;-59
2022/07/19 07:50:32;;;;;;;4.70;1.73;;;20.70;52.40;;;;;;5079253;28;20076;-59
2022/07/19 07:53:00;;;;;;;2.85;1.65;;;20.80;52.50;;;;;;5077119;28;20050;-60
2022/07/19 07:55:27;;;;;;;5.68;1.58;;;20.80;52.60;;;;;;5078660;28;20144;-60
2022/07/19 07:57:57;;;;;;;7.28;1.92;;;20.80;52.60;;;;;;5078335;28;20496;-60
2022/07/19 08:00:24;;;;;;;3.53;1.45;;;20.80;52.60;;;;;;5081688;28;20117;-57
2022/07/19 08:02:51;;;;;;;5.60;1.70;;;20.80;52.50;;;;;;5078683;28;20459;-58
2022/07/19 08:05:22;;;;;;;1.88;1.60;;;20.80;52.50;;;;;;5079207;28;19924;-60
2022/07/19 08:07:49;;;;;;;;;;;20.80;52.40;;;;;;5075665;28;20043;-60
2022/07/19 08:10:20;;;;;;;2.30;1.87;;;20.90;52.70;;;;;;5074147;28;19935;-59
2022/07/19 08:12:48;;;;;;;2.95;1.70;;;20.90;52.60;;;;;;5079435;28;20404;-59
2022/07/19 08:15:15;;;;;;;4.38;1.65;;;20.90;52.50;;;;;;5078212;28;20064;-59
2022/07/19 08:17:42;;;;;;;4.10;1.20;;;20.90;52.50;;;;;;5076699;28;20094;-60
2022/07/19 08:20:10;;;;;;;3.72;1.67;;;21.00;52.50;;;;;;5073466;28;20052;-59
2022/07/19 08:22:37;;;;;;;2.35;1.13;;;21.10;52.60;;;;;;5077766;28;20477;-60
2022/07/19 08:25:05;;;;;;;4.20;1.60;;;21.10;52.50;;;;;;5075469;28;20055;-61
2022/07/19 08:27:33;;;;;;;4.00;1.40;;;21.10;52.60;;;;;;5072635;28;20040;-59
2022/07/19 08:30:03;;;;;;;2.20;1.30;;;21.10;52.60;;;;;;5078645;28;20055;-59
2022/07/19 08:32:36;;;;;;;3.65;1.38;;;21.10;52.60;;;;;;5075307;28;20404;-59
2022/07/19 08:35:08;;;;;;;2.30;1.42;;;21.20;52.60;;;;;;5072946;28;20040;-60
2022/07/19 08:37:36;;;;;;;6.65;1.40;;;21.20;52.50;;;;;;5073767;28;20488;-61
2022/07/19 08:40:05;;;;;;;3.53;1.42;;;21.20;52.50;;;;;;5074511;28;20051;-59
2022/07/19 08:42:32;;;;;;;3.00;1.42;;;21.20;52.50;;;;;;5073020;28;20056;-60
2022/07/19 08:45:04;;;;;;;4.73;1.57;;;21.30;52.50;;;;;;5072619;28;20520;-60
2022/07/19 08:47:32;;;;;;;3.80;1.55;;;21.30;52.30;;;;;;5072806;28;20052;-59
2022/07/19 08:50:01;;;;;;;2.70;1.23;;;21.30;52.20;;;;;;5073681;28;20039;-59
2022/07/19 08:52:28;;;;;;;4.03;1.10;;;21.30;52.20;;;;;;5068311;28;20048;-60
2022/07/19 08:54:56;;;;;;;4.93;1.23;;;21.30;52.10;;;;;;5080109;28;20045;-59
2022/07/19 09:00:12;;;;;;;2.40;1.45;;;21.40;52.00;;;;;;5074615;28;20500;-60
2022/07/19 09:02:56;;;;;;;;;;;21.40;51.90;;;;;;5059803;28;20048;-59
2022/07/19 09:05:24;;;;;;;2.15;1.10;;;21.30;51.90;;;;;;5074929;28;19924;-60
2022/07/19 09:08:15;;;;;;;2.45;1.27;;;21.40;52.00;;;;;;5078197;28;20052;-59
2022/07/19 09:11:14;;;;;;;2.05;1.05;;;21.40;52.00;;;;;;5079910;28;20056;-60
2022/07/19 09:13:36;;;;;;;3.50;1.63;;;21.40;52.00;;;;;;5082674;28;20055;-60
2022/07/19 09:16:04;;;;;;;3.13;1.23;;;21.40;52.90;;;;;;5080372;28;20079;-59
2022/07/19 09:18:35;;;;;;;3.13;1.48;;;21.40;53.00;;;;;;5078301;28;20052;-59
2022/07/19 09:21:05;;;;;;;3.73;1.47;;;21.40;53.30;;;;;;5080014;28;20044;-59
2022/07/19 09:23:33;;;;;;;1.38;1.10;;;21.40;53.50;;;;;;5077496;28;20051;-58
2022/07/19 09:26:03;;;;;;;2.80;1.30;;;21.40;53.60;;;;;;5074826;28;20452;-59
2022/07/19 09:28:33;;;;;;;3.15;1.08;;;21.40;53.20;;;;;;5075770;28;20044;-59
2022/07/19 09:31:03;;;;;;;1.75;1.02;;;21.50;53.10;;;;;;5072484;28;20071;-59
2022/07/19 09:33:32;;;;;;;0.95;0.90;;;21.50;52.90;;;;;;5077158;28;20046;-59
2022/07/19 09:36:14;;;;;;;1.95;1.20;;;21.60;52.80;;;;;;5077942;28;20044;-60
2022/07/19 09:38:43;;;;;;;1.20;1.10;;;21.70;52.60;;;;;;5078434;28;21563;-59
2022/07/19 09:41:14;;;;;;;2.25;1.25;;;21.70;52.60;;;;;;5076943;28;20461;-60
2022/07/19 09:44:05;;;;;;;2.75;0.90;;;21.70;52.60;;;;;;5084142;28;20512;-59
2022/07/19 09:46:39;;;;;;;2.05;1.05;;;21.70;52.60;;;;;;5078226;28;20058;-59
2022/07/19 09:49:13;;;;;;;1.65;1.02;;;21.70;53.10;;;;;;5072793;28;20047;-60
2022/07/19 09:51:43;;;;;;;3.13;1.50;;;21.70;52.50;;;;;;5072742;28;20051;-60
2022/07/19 09:54:12;;;;;;;;;;;21.70;52.50;;;;;;5075599;28;20044;-60
2022/07/19 09:56:41;;;;;;;4.43;1.33;;;21.80;52.40;;;;;;5074368;28;20429;-61
2022/07/19 09:59:09;;;;;;;2.38;0.75;;;21.70;52.10;;;;;;5060089;28;20048;-62
2022/07/19 10:01:37;;;;;;;4.25;1.23;;;21.70;51.80;;;;;;5073589;28;20451;-61
2022/07/19 10:04:13;;;;;;;1.80;0.88;;;21.70;51.40;;;;;;5080128;28;20080;-60
2022/07/19 10:06:42;;;;;;;1.52;1.00;;;21.80;51.30;;;;;;5086628;28;20048;-59
2022/07/19 10:09:12;;;;;;;1.40;0.95;;;21.70;51.20;;;;;;5084427;28;20078;-61
2022/07/19 10:11:39;;;;;;;4.47;0.73;;;21.80;51.00;;;;;;5077279;28;20119;-61
2022/07/19 10:14:08;;;;;;;2.33;1.17;;;21.80;50.80;;;;;;5072303;28;20416;-61
2022/07/19 10:16:53;;;;;;;2.42;0.93;;;21.80;50.70;;;;;;5081385;28;20094;-61
2022/07/19 10:19:43;;;;;;;2.50;0.95;;;21.80;50.50;;;;;;5077828;28;20107;-62
2022/07/19 10:22:16;;;;;;;3.47;0.98;;;21.70;50.40;;;;;;5082944;28;20055;-61
2022/07/19 10:24:52;;;;;;;1.98;0.70;;;21.70;50.50;;;;;;5086199;28;20465;-61
2022/07/19 10:27:36;;;;;;;2.88;0.98;;;21.70;50.50;;;;;;5079424;28;20076;-62
2022/07/19 10:30:24;;;;;;;2.08;1.10;;;21.70;50.40;;;;;;5074569;28;20101;-62
2022/07/19 10:32:56;;;;;;;0.60;0.60;;;21.80;50.40;;;;;;5072171;28;20097;-62
2022/07/19 10:35:30;;;;;;;2.05;0.80;;;21.70;50.30;;;;;;5080079;28;20040;-63
2022/07/19 10:38:10;;;;;;;1.35;0.82;;;21.70;50.30;;;;;;5083467;28;20051;-60
2022/07/19 10:40:50;;;;;;;3.25;1.00;;;21.70;50.50;;;;;;5083868;28;20507;-60
2022/07/19 10:43:20;;;;;;;0.95;0.70;;;21.70;50.40;;;;;;5074823;28;20055;-60
2022/07/19 10:46:08;;;;;;;2.07;0.73;;;21.70;50.60;;;;;;5078039;28;20130;-61
2022/07/19 10:48:41;;;;;;;1.15;0.90;;;21.70;50.60;;;;;;5061144;28;20303;-62
2022/07/19 10:51:30;;;;;;;1.25;0.80;;;21.70;50.50;;;;;;5070131;28;20125;-62
2022/07/19 10:54:01;;;;;;;1.55;0.82;;;21.70;50.60;;;;;;5082740;28;20041;-61
2022/07/19 10:56:34;;;;;;;;;;;21.80;50.70;;;;;;5077481;28;20503;-62
2022/07/19 10:59:10;;;;;;;0.50;0.50;;;21.80;50.50;;;;;;5078985;28;19971;-61
2022/07/19 11:01:53;;;;;;;2.33;0.95;;;21.70;51.00;;;;;;5079257;28;20044;-60
2022/07/19 11:04:28;;;;;;;2.88;0.95;;;21.70;51.20;;;;;;5070290;28;20101;-61
2022/07/19 11:07:17;;;;;;;4.35;1.08;;;21.70;51.50;;;;;;5076982;28;20052;-59
2022/07/19 11:09:53;;;;;;;0.80;0.80;;;21.70;51.30;;;;;;5075321;28;20404;-60
2022/07/19 11:12:25;;;;;;;3.45;0.93;;;21.60;51.30;;;;;;5080559;28;20043;-60
2022/07/19 11:14:52;;;;;;;1.85;1.05;;;21.60;51.40;;;;;;5068920;28;20390;-58
2022/07/19 11:17:39;;;;;;;3.85;1.23;;;21.60;51.40;;;;;;5074900;28;20051;-59
2022/07/19 11:20:11;;;;;;;3.05;1.00;;;21.60;51.20;;;;;;5065280;28;20051;-59
2022/07/19 11:22:42;;;;;;;3.42;0.95;;;21.60;51.20;;;;;;5067459;28;20044;-58
2022/07/19 11:25:11;;;;;;;1.42;0.95;;;21.60;51.30;;;;;;5065551;28;20055;-58
2022/07/19 11:27:47;;;;;;;0.82;0.82;;;21.60;51.80;;;;;;5069355;28;20044;-61
2022/07/19 11:30:15;;;;;;;1.48;0.93;;;21.60;51.50;;;;;;5081076;28;20055;-60
2022/07/19 11:32:55;;;;;;;1.02;0.90;;;21.60;51.30;;;;;;5065620;28;20051;-60
2022/07/19 11:35:23;;;;;;;3.00;0.93;;;21.70;51.50;;;;;;5063305;28;20420;-58
2022/07/19 11:37:53;;;;;;;2.60;1.25;;;21.70;51.30;;;;;;5073120;28;20044;-58
2022/07/19 11:40:24;;;;;;;2.28;1.10;;;21.70;51.20;;;;;;5069059;28;20044;-58
2022/07/19 11:42:53;;;;;;;0.70;0.70;;;21.70;51.20;;;;;;5071516;28;20051;-61
2022/07/19 11:45:48;;;;;;;2.30;1.30;;;21.70;51.30;;;;;;5070972;28;20094;-57
2022/07/19 11:48:30;;;;;;;3.03;0.90;;;21.60;51.50;;;;;;5074270;28;20050;-58
2022/07/19 11:51:00;;;;;;;0.95;0.80;;;21.70;52.00;;;;;;5074064;28;20051;-59
2022/07/19 11:53:28;;;;;;;1.17;0.82;;;21.70;51.60;;;;;;5076600;28;20493;-60
2022/07/19 11:55:56;;;;;;;1.00;0.90;;;21.70;51.30;;;;;;5075222;28;20050;-59
2022/07/19 11:58:24;;;;;;;1.25;0.90;;;21.70;51.20;;;;;;5074692;28;20507;-60
2022/07/19 12:00:52;;;;;;;4.38;1.10;;;21.70;50.90;;;;;;5083849;28;20053;-60
2022/07/19 12:03:19;;;;;;;1.05;0.95;;;21.70;50.80;;;;;;5084554;28;20062;-59
2022/07/19 12:06:06;;;;;;;1.83;0.80;;;21.70;50.50;;;;;;5066624;28;20052;-59
2022/07/19 12:08:41;;;;;;;3.13;0.95;;;21.70;50.70;;;;;;5077896;28;20576;-59
2022/07/19 12:11:23;;;;;;;3.03;0.68;;;21.70;50.60;;;;;;5077319;28;20048;-58
2022/07/19 12:13:53;;;;;;;1.98;0.90;;;21.70;50.50;;;;;;5072749;28;20550;-59
2022/07/19 12:16:22;;;;;;;1.30;0.60;;;21.60;50.40;;;;;;5080362;28;20087;-59
2022/07/19 12:18:55;;;;;;;1.88;1.10;;;21.60;50.80;;;;;;5075621;28;20056;-57
2022/07/19 12:21:43;;;;;;;2.08;1.38;;;21.60;50.90;;;;;;5075480;28;20497;-58
2022/07/19 12:24:20;;;;;;;0.75;0.70;;;21.50;50.90;;;;;;5073092;28;20496;-59
2022/07/19 12:27:02;;;;;;;1.98;0.90;;;21.50;51.00;;;;;;5079948;28;20048;-60
2022/07/19 12:29:35;;;;;;;0.95;0.80;;;21.50;51.00;;;;;;5078891;28;20055;-59
2022/07/19 12:32:06;;;;;;;0.88;0.70;;;21.50;51.10;;;;;;5072967;28;20061;-60
2022/07/19 12:34:56;;;;;;;0.80;0.80;;;21.50;51.10;;;;;;5075329;28;20048;-59
2022/07/19 12:37:28;;;;;;;1.58;0.70;;;21.50;51.50;;;;;;5077544;28;20052;-59
2022/07/19 12:40:13;;;;;;;3.38;0.70;;;21.50;51.20;;;;;;5073494;28;20040;-61
2022/07/19 12:43:02;;;;;;;4.60;0.70;;;21.50;51.40;;;;;;5070618;28;20040;-61
2022/07/19 12:45:42;;;;;;;0.90;0.90;;;21.60;51.70;;;;;;5076830;28;20059;-59
2022/07/19 12:48:13;;;;;;;2.17;0.90;;;21.60;51.90;;;;;;5081774;28;20444;-61
2022/07/19 12:50:49;;;;;;;0.90;0.80;;;21.60;51.90;;;;;;5076696;28;20093;-60
2022/07/19 12:53:17;;;;;;;0.70;0.70;;;21.60;51.90;;;;;;5071010;28;21791;-60
2022/07/19 12:55:45;;;;;;;1.10;1.00;;;21.70;51.80;;;;;;5074835;28;20415;-58
2022/07/19 12:59:38;;;;;;;0.82;0.82;;;21.70;51.70;;;;;;5081335;28;20079;-59
2022/07/19 13:01:02;;;;;;;1.58;0.88;;;21.70;51.50;;;;;;5075797;28;20048;-59
2022/07/19 13:03:29;;;;;;;0.77;0.75;;;21.80;51.50;;;;;;5080228;28;20091;-58